sensor_id;sensor_type;location;lat;lon;timestamp;P1;durP1;ratioP1;P2;durP2;ratioP2
1479;SDS011;732;51.698;4.886;2023-07-28T00:00:19;33.37;;;13.63;;
1479;SDS011;732;51.698;4.886;2023-07-28T00:02:50;30.07;;;14.10;;
1479;SDS011;732;51.698;4.886;2023-07-28T00:05:18;33.30;;;13.97;;
1479;SDS011;732;51.698;4.886;2023-07-28T00:07:47;35.80;;;15.50;;
1479;SDS011;732;51.698;4.886;2023-07-28T00:10:15;31.10;;;14.73;;
1479;SDS011;732;51.698;4.886;2023-07-28T00:12:44;33.40;;;14.97;;
1479;SDS011;732;51.698;4.886;2023-07-28T00:15:12;34.60;;;16.00;;
1479;SDS011;732;51.698;4.886;2023-07-28T00:17:42;33.47;;;15.93;;
1479;SDS011;732;51.698;4.886;2023-07-28T00:20:11;33.43;;;15.60;;
1479;SDS011;732;51.698;4.886;2023-07-28T00:22:39;34.37;;;15.90;;
1479;SDS011;732;51.698;4.886;2023-07-28T00:25:08;41.63;;;18.20;;
1479;SDS011;732;51.698;4.886;2023-07-28T00:27:36;33.57;;;16.70;;
1479;SDS011;732;51.698;4.886;2023-07-28T00:30:05;35.77;;;16.17;;
1479;SDS011;732;51.698;4.886;2023-07-28T00:32:34;31.90;;;16.37;;
1479;SDS011;732;51.698;4.886;2023-07-28T00:35:05;38.33;;;16.90;;
1479;SDS011;732;51.698;4.886;2023-07-28T00:37:34;36.87;;;16.93;;
1479;SDS011;732;51.698;4.886;2023-07-28T00:40:02;37.40;;;17.20;;
1479;SDS011;732;51.698;4.886;2023-07-28T00:42:34;39.80;;;16.30;;
1479;SDS011;732;51.698;4.886;2023-07-28T00:45:03;38.67;;;18.20;;
1479;SDS011;732;51.698;4.886;2023-07-28T00:47:32;38.80;;;17.10;;
1479;SDS011;732;51.698;4.886;2023-07-28T00:50:01;41.20;;;17.60;;
1479;SDS011;732;51.698;4.886;2023-07-28T00:52:32;36.93;;;17.40;;
1479;SDS011;732;51.698;4.886;2023-07-28T00:55:00;34.67;;;16.40;;
1479;SDS011;732;51.698;4.886;2023-07-28T00:57:30;38.53;;;17.23;;
1479;SDS011;732;51.698;4.886;2023-07-28T00:59:59;39.30;;;19.20;;
1479;SDS011;732;51.698;4.886;2023-07-28T01:02:28;43.67;;;19.00;;
1479;SDS011;732;51.698;4.886;2023-07-28T01:04:57;38.20;;;17.87;;
1479;SDS011;732;51.698;4.886;2023-07-28T01:07:27;41.37;;;18.70;;
1479;SDS011;732;51.698;4.886;2023-07-28T01:10:05;42.07;;;17.50;;
1479;SDS011;732;51.698;4.886;2023-07-28T01:12:38;41.10;;;16.67;;
1479;SDS011;732;51.698;4.886;2023-07-28T01:15:06;41.40;;;17.10;;
1479;SDS011;732;51.698;4.886;2023-07-28T01:17:35;38.77;;;17.90;;
1479;SDS011;732;51.698;4.886;2023-07-28T01:20:04;41.30;;;18.37;;
1479;SDS011;732;51.698;4.886;2023-07-28T01:22:48;39.60;;;16.70;;
1479;SDS011;732;51.698;4.886;2023-07-28T01:25:47;42.50;;;19.37;;
1479;SDS011;732;51.698;4.886;2023-07-28T01:28:28;39.20;;;18.10;;
1479;SDS011;732;51.698;4.886;2023-07-28T01:30:57;51.43;;;19.67;;
1479;SDS011;732;51.698;4.886;2023-07-28T01:33:27;41.27;;;19.17;;
1479;SDS011;732;51.698;4.886;2023-07-28T01:35:56;47.47;;;19.97;;
1479;SDS011;732;51.698;4.886;2023-07-28T01:38:27;50.40;;;22.20;;
1479;SDS011;732;51.698;4.886;2023-07-28T01:40:55;48.10;;;21.13;;
1479;SDS011;732;51.698;4.886;2023-07-28T01:43:24;46.67;;;21.70;;
1479;SDS011;732;51.698;4.886;2023-07-28T01:45:54;48.87;;;21.53;;
1479;SDS011;732;51.698;4.886;2023-07-28T01:48:23;61.13;;;23.13;;
1479;SDS011;732;51.698;4.886;2023-07-28T01:50:51;57.80;;;21.90;;
1479;SDS011;732;51.698;4.886;2023-07-28T01:53:19;53.23;;;22.50;;
1479;SDS011;732;51.698;4.886;2023-07-28T01:55:48;54.03;;;21.40;;
1479;SDS011;732;51.698;4.886;2023-07-28T01:58:17;54.53;;;24.40;;
1479;SDS011;732;51.698;4.886;2023-07-28T02:00:45;58.57;;;25.50;;
1479;SDS011;732;51.698;4.886;2023-07-28T02:03:15;59.27;;;24.03;;
1479;SDS011;732;51.698;4.886;2023-07-28T02:05:44;60.77;;;25.27;;
1479;SDS011;732;51.698;4.886;2023-07-28T02:08:12;60.57;;;26.30;;
1479;SDS011;732;51.698;4.886;2023-07-28T02:10:40;63.77;;;26.50;;
1479;SDS011;732;51.698;4.886;2023-07-28T02:13:11;62.10;;;26.30;;
1479;SDS011;732;51.698;4.886;2023-07-28T02:15:39;63.23;;;24.37;;
1479;SDS011;732;51.698;4.886;2023-07-28T02:18:07;62.47;;;28.50;;
1479;SDS011;732;51.698;4.886;2023-07-28T02:20:37;70.80;;;28.20;;
1479;SDS011;732;51.698;4.886;2023-07-28T02:23:06;69.23;;;29.23;;
1479;SDS011;732;51.698;4.886;2023-07-28T02:25:34;61.50;;;28.37;;
1479;SDS011;732;51.698;4.886;2023-07-28T02:28:03;67.40;;;29.93;;
1479;SDS011;732;51.698;4.886;2023-07-28T02:30:31;62.67;;;28.80;;
1479;SDS011;732;51.698;4.886;2023-07-28T02:32:59;68.63;;;29.57;;
1479;SDS011;732;51.698;4.886;2023-07-28T02:35:28;72.27;;;30.30;;
1479;SDS011;732;51.698;4.886;2023-07-28T02:37:59;67.00;;;27.70;;
1479;SDS011;732;51.698;4.886;2023-07-28T02:40:28;70.93;;;31.20;;
1479;SDS011;732;51.698;4.886;2023-07-28T02:42:56;71.73;;;29.90;;
1479;SDS011;732;51.698;4.886;2023-07-28T02:45:24;75.43;;;31.80;;
1479;SDS011;732;51.698;4.886;2023-07-28T02:47:53;69.17;;;30.77;;
1479;SDS011;732;51.698;4.886;2023-07-28T02:50:22;77.60;;;31.83;;
1479;SDS011;732;51.698;4.886;2023-07-28T02:52:51;78.23;;;34.00;;
1479;SDS011;732;51.698;4.886;2023-07-28T02:55:20;67.20;;;33.73;;
1479;SDS011;732;51.698;4.886;2023-07-28T02:57:48;73.30;;;33.50;;
1479;SDS011;732;51.698;4.886;2023-07-28T03:00:17;69.93;;;32.00;;
1479;SDS011;732;51.698;4.886;2023-07-28T03:02:45;70.67;;;33.50;;
1479;SDS011;732;51.698;4.886;2023-07-28T03:05:16;77.73;;;33.70;;
1479;SDS011;732;51.698;4.886;2023-07-28T03:08:05;73.80;;;34.20;;
1479;SDS011;732;51.698;4.886;2023-07-28T03:10:35;71.43;;;34.87;;
1479;SDS011;732;51.698;4.886;2023-07-28T03:13:03;76.87;;;33.93;;
1479;SDS011;732;51.698;4.886;2023-07-28T03:15:31;72.10;;;33.10;;
1479;SDS011;732;51.698;4.886;2023-07-28T03:18:00;73.73;;;35.03;;
1479;SDS011;732;51.698;4.886;2023-07-28T03:20:28;63.50;;;32.60;;
1479;SDS011;732;51.698;4.886;2023-07-28T03:22:57;72.83;;;31.30;;
1479;SDS011;732;51.698;4.886;2023-07-28T03:25:26;70.00;;;33.40;;
1479;SDS011;732;51.698;4.886;2023-07-28T03:27:56;73.63;;;33.70;;
1479;SDS011;732;51.698;4.886;2023-07-28T03:30:24;78.93;;;35.07;;
1479;SDS011;732;51.698;4.886;2023-07-28T03:32:53;81.97;;;35.40;;
1479;SDS011;732;51.698;4.886;2023-07-28T03:35:21;79.77;;;35.30;;
1479;SDS011;732;51.698;4.886;2023-07-28T03:37:59;81.13;;;36.67;;
1479;SDS011;732;51.698;4.886;2023-07-28T03:40:28;77.90;;;36.20;;
1479;SDS011;732;51.698;4.886;2023-07-28T03:42:58;98.87;;;42.47;;
1479;SDS011;732;51.698;4.886;2023-07-28T03:45:27;89.23;;;39.83;;
1479;SDS011;732;51.698;4.886;2023-07-28T03:47:55;85.23;;;39.03;;
1479;SDS011;732;51.698;4.886;2023-07-28T03:50:24;96.00;;;40.23;;
1479;SDS011;732;51.698;4.886;2023-07-28T03:52:52;97.27;;;41.67;;
1479;SDS011;732;51.698;4.886;2023-07-28T03:55:21;80.00;;;38.50;;
1479;SDS011;732;51.698;4.886;2023-07-28T03:57:49;83.17;;;40.23;;
1479;SDS011;732;51.698;4.886;2023-07-28T04:00:19;94.73;;;40.60;;
1479;SDS011;732;51.698;4.886;2023-07-28T04:02:47;90.40;;;39.90;;
1479;SDS011;732;51.698;4.886;2023-07-28T04:05:16;97.13;;;38.67;;
1479;SDS011;732;51.698;4.886;2023-07-28T04:07:44;86.57;;;37.10;;
1479;SDS011;732;51.698;4.886;2023-07-28T04:10:14;91.63;;;40.60;;
1479;SDS011;732;51.698;4.886;2023-07-28T04:12:43;90.23;;;39.27;;
1479;SDS011;732;51.698;4.886;2023-07-28T04:15:11;97.50;;;39.03;;
1479;SDS011;732;51.698;4.886;2023-07-28T04:17:40;92.63;;;38.90;;
1479;SDS011;732;51.698;4.886;2023-07-28T04:20:09;91.63;;;38.13;;
1479;SDS011;732;51.698;4.886;2023-07-28T04:22:38;92.00;;;40.90;;
1479;SDS011;732;51.698;4.886;2023-07-28T04:25:07;84.23;;;38.30;;
1479;SDS011;732;51.698;4.886;2023-07-28T04:27:38;85.30;;;39.03;;
1479;SDS011;732;51.698;4.886;2023-07-28T04:30:07;87.63;;;37.70;;
1479;SDS011;732;51.698;4.886;2023-07-28T04:32:36;78.47;;;37.43;;
1479;SDS011;732;51.698;4.886;2023-07-28T04:35:14;84.37;;;37.20;;
1479;SDS011;732;51.698;4.886;2023-07-28T04:37:54;76.47;;;36.33;;
1479;SDS011;732;51.698;4.886;2023-07-28T04:40:47;78.93;;;34.90;;
1479;SDS011;732;51.698;4.886;2023-07-28T04:43:20;80.23;;;36.10;;
1479;SDS011;732;51.698;4.886;2023-07-28T04:45:52;72.47;;;34.43;;
1479;SDS011;732;51.698;4.886;2023-07-28T04:48:22;78.27;;;36.20;;
1479;SDS011;732;51.698;4.886;2023-07-28T04:50:52;80.97;;;37.57;;
1479;SDS011;732;51.698;4.886;2023-07-28T04:53:53;72.37;;;34.13;;
1479;SDS011;732;51.698;4.886;2023-07-28T04:56:25;69.83;;;33.93;;
1479;SDS011;732;51.698;4.886;2023-07-28T04:58:54;75.37;;;35.50;;
1479;SDS011;732;51.698;4.886;2023-07-28T05:01:22;77.50;;;35.40;;
1479;SDS011;732;51.698;4.886;2023-07-28T05:03:50;78.67;;;35.40;;
1479;SDS011;732;51.698;4.886;2023-07-28T05:06:25;75.50;;;33.03;;
1479;SDS011;732;51.698;4.886;2023-07-28T05:08:53;68.10;;;33.57;;
1479;SDS011;732;51.698;4.886;2023-07-28T05:11:32;77.67;;;33.90;;
1479;SDS011;732;51.698;4.886;2023-07-28T05:14:01;81.23;;;35.90;;
1479;SDS011;732;51.698;4.886;2023-07-28T05:16:32;74.10;;;34.80;;
1479;SDS011;732;51.698;4.886;2023-07-28T05:19:06;84.23;;;33.93;;
1479;SDS011;732;51.698;4.886;2023-07-28T05:21:39;79.87;;;34.77;;
1479;SDS011;732;51.698;4.886;2023-07-28T05:24:10;75.13;;;33.97;;
1479;SDS011;732;51.698;4.886;2023-07-28T05:26:38;70.43;;;32.37;;
1479;SDS011;732;51.698;4.886;2023-07-28T05:29:07;75.40;;;34.10;;
1479;SDS011;732;51.698;4.886;2023-07-28T05:31:35;71.47;;;31.73;;
1479;SDS011;732;51.698;4.886;2023-07-28T05:34:10;69.47;;;34.83;;
1479;SDS011;732;51.698;4.886;2023-07-28T05:36:40;71.47;;;32.60;;
1479;SDS011;732;51.698;4.886;2023-07-28T05:39:10;77.17;;;31.10;;
1479;SDS011;732;51.698;4.886;2023-07-28T05:41:42;68.00;;;32.33;;
1479;SDS011;732;51.698;4.886;2023-07-28T05:44:12;68.80;;;32.83;;
1479;SDS011;732;51.698;4.886;2023-07-28T05:46:40;71.10;;;31.87;;
1479;SDS011;732;51.698;4.886;2023-07-28T05:49:09;76.80;;;33.70;;
1479;SDS011;732;51.698;4.886;2023-07-28T05:51:37;69.93;;;32.03;;
1479;SDS011;732;51.698;4.886;2023-07-28T05:54:07;61.77;;;30.10;;
1479;SDS011;732;51.698;4.886;2023-07-28T05:56:35;67.80;;;32.40;;
1479;SDS011;732;51.698;4.886;2023-07-28T05:59:03;64.13;;;31.60;;
1479;SDS011;732;51.698;4.886;2023-07-28T06:01:32;70.83;;;31.40;;
1479;SDS011;732;51.698;4.886;2023-07-28T06:04:28;63.13;;;31.60;;
1479;SDS011;732;51.698;4.886;2023-07-28T06:06:58;59.57;;;32.03;;
1479;SDS011;732;51.698;4.886;2023-07-28T06:09:27;58.00;;;31.10;;
1479;SDS011;732;51.698;4.886;2023-07-28T06:11:56;65.47;;;32.17;;
1479;SDS011;732;51.698;4.886;2023-07-28T06:14:26;65.53;;;30.70;;
1479;SDS011;732;51.698;4.886;2023-07-28T06:16:55;61.93;;;32.23;;
1479;SDS011;732;51.698;4.886;2023-07-28T06:19:29;65.70;;;31.10;;
1479;SDS011;732;51.698;4.886;2023-07-28T06:21:57;58.17;;;29.87;;
1479;SDS011;732;51.698;4.886;2023-07-28T06:24:27;56.57;;;30.03;;
1479;SDS011;732;51.698;4.886;2023-07-28T06:26:58;59.60;;;30.40;;
1479;SDS011;732;51.698;4.886;2023-07-28T06:29:26;64.13;;;30.90;;
1479;SDS011;732;51.698;4.886;2023-07-28T06:31:54;61.83;;;29.27;;
1479;SDS011;732;51.698;4.886;2023-07-28T06:34:22;50.97;;;28.13;;
1479;SDS011;732;51.698;4.886;2023-07-28T06:36:51;55.00;;;28.47;;
1479;SDS011;732;51.698;4.886;2023-07-28T06:39:19;47.63;;;26.97;;
1479;SDS011;732;51.698;4.886;2023-07-28T06:41:49;59.90;;;30.00;;
1479;SDS011;732;51.698;4.886;2023-07-28T06:44:18;51.00;;;27.27;;
1479;SDS011;732;51.698;4.886;2023-07-28T06:46:46;52.00;;;27.27;;
1479;SDS011;732;51.698;4.886;2023-07-28T06:49:15;53.83;;;27.13;;
1479;SDS011;732;51.698;4.886;2023-07-28T06:51:43;48.30;;;27.10;;
1479;SDS011;732;51.698;4.886;2023-07-28T06:54:11;53.77;;;28.83;;
1479;SDS011;732;51.698;4.886;2023-07-28T06:56:40;52.27;;;28.90;;
1479;SDS011;732;51.698;4.886;2023-07-28T06:59:09;62.50;;;29.63;;
1479;SDS011;732;51.698;4.886;2023-07-28T07:01:44;54.57;;;30.17;;
1479;SDS011;732;51.698;4.886;2023-07-28T07:04:12;58.17;;;29.70;;
1479;SDS011;732;51.698;4.886;2023-07-28T07:06:40;58.53;;;28.90;;
1479;SDS011;732;51.698;4.886;2023-07-28T07:09:09;60.70;;;30.60;;
1479;SDS011;732;51.698;4.886;2023-07-28T07:11:40;54.43;;;29.27;;
1479;SDS011;732;51.698;4.886;2023-07-28T07:14:10;58.97;;;30.87;;
1479;SDS011;732;51.698;4.886;2023-07-28T07:16:38;68.67;;;32.60;;
1479;SDS011;732;51.698;4.886;2023-07-28T07:19:07;54.07;;;30.80;;
1479;SDS011;732;51.698;4.886;2023-07-28T07:21:36;57.37;;;31.00;;
1479;SDS011;732;51.698;4.886;2023-07-28T07:24:04;57.17;;;29.10;;
1479;SDS011;732;51.698;4.886;2023-07-28T07:26:34;57.43;;;31.17;;
1479;SDS011;732;51.698;4.886;2023-07-28T07:29:02;55.30;;;31.27;;
1479;SDS011;732;51.698;4.886;2023-07-28T07:31:32;62.70;;;33.17;;
1479;SDS011;732;51.698;4.886;2023-07-28T07:34:01;61.17;;;30.90;;
1479;SDS011;732;51.698;4.886;2023-07-28T07:36:30;65.23;;;32.00;;
1479;SDS011;732;51.698;4.886;2023-07-28T07:39:00;70.33;;;34.40;;
1479;SDS011;732;51.698;4.886;2023-07-28T07:41:29;59.07;;;32.23;;
1479;SDS011;732;51.698;4.886;2023-07-28T07:43:57;66.60;;;33.80;;
1479;SDS011;732;51.698;4.886;2023-07-28T07:46:25;67.63;;;35.23;;
1479;SDS011;732;51.698;4.886;2023-07-28T07:48:55;63.97;;;35.03;;
1479;SDS011;732;51.698;4.886;2023-07-28T07:51:23;63.80;;;35.90;;
1479;SDS011;732;51.698;4.886;2023-07-28T07:53:51;64.10;;;34.20;;
1479;SDS011;732;51.698;4.886;2023-07-28T07:56:20;70.63;;;37.10;;
1479;SDS011;732;51.698;4.886;2023-07-28T07:58:48;63.07;;;35.53;;
1479;SDS011;732;51.698;4.886;2023-07-28T08:01:17;62.50;;;36.07;;
1479;SDS011;732;51.698;4.886;2023-07-28T08:03:45;56.87;;;34.90;;
1479;SDS011;732;51.698;4.886;2023-07-28T08:06:15;60.53;;;34.73;;
1479;SDS011;732;51.698;4.886;2023-07-28T08:08:43;60.57;;;36.10;;
1479;SDS011;732;51.698;4.886;2023-07-28T08:11:12;59.03;;;33.97;;
1479;SDS011;732;51.698;4.886;2023-07-28T08:13:40;52.37;;;32.17;;
1479;SDS011;732;51.698;4.886;2023-07-28T08:16:09;55.60;;;32.30;;
1479;SDS011;732;51.698;4.886;2023-07-28T08:18:37;54.87;;;31.60;;
1479;SDS011;732;51.698;4.886;2023-07-28T08:21:06;57.27;;;31.60;;
1479;SDS011;732;51.698;4.886;2023-07-28T08:23:35;56.83;;;31.77;;
1479;SDS011;732;51.698;4.886;2023-07-28T08:26:03;47.87;;;29.13;;
1479;SDS011;732;51.698;4.886;2023-07-28T08:28:32;49.30;;;30.93;;
1479;SDS011;732;51.698;4.886;2023-07-28T08:31:00;54.10;;;30.40;;
1479;SDS011;732;51.698;4.886;2023-07-28T08:33:30;49.20;;;30.43;;
1479;SDS011;732;51.698;4.886;2023-07-28T08:35:58;46.03;;;28.90;;
1479;SDS011;732;51.698;4.886;2023-07-28T08:38:30;45.67;;;28.40;;
1479;SDS011;732;51.698;4.886;2023-07-28T08:41:00;47.73;;;28.43;;
1479;SDS011;732;51.698;4.886;2023-07-28T08:43:28;43.47;;;27.33;;
1479;SDS011;732;51.698;4.886;2023-07-28T08:45:57;49.13;;;27.73;;
1479;SDS011;732;51.698;4.886;2023-07-28T08:48:26;43.33;;;27.10;;
1479;SDS011;732;51.698;4.886;2023-07-28T08:50:57;48.13;;;25.37;;
1479;SDS011;732;51.698;4.886;2023-07-28T08:53:25;40.20;;;24.83;;
1479;SDS011;732;51.698;4.886;2023-07-28T08:55:53;40.60;;;24.77;;
1479;SDS011;732;51.698;4.886;2023-07-28T08:58:23;39.43;;;24.33;;
1479;SDS011;732;51.698;4.886;2023-07-28T09:00:52;39.17;;;24.27;;
1479;SDS011;732;51.698;4.886;2023-07-28T09:03:21;36.43;;;23.90;;
1479;SDS011;732;51.698;4.886;2023-07-28T09:05:54;35.53;;;22.50;;
1479;SDS011;732;51.698;4.886;2023-07-28T09:08:28;31.20;;;20.87;;
1479;SDS011;732;51.698;4.886;2023-07-28T09:11:01;29.43;;;20.70;;
1479;SDS011;732;51.698;4.886;2023-07-28T09:13:37;30.43;;;20.27;;
1479;SDS011;732;51.698;4.886;2023-07-28T09:16:15;28.27;;;19.50;;
1479;SDS011;732;51.698;4.886;2023-07-28T09:18:45;27.53;;;18.57;;
1479;SDS011;732;51.698;4.886;2023-07-28T09:21:17;25.80;;;18.30;;
1479;SDS011;732;51.698;4.886;2023-07-28T09:23:47;27.87;;;18.23;;
1479;SDS011;732;51.698;4.886;2023-07-28T09:26:16;30.83;;;19.63;;
1479;SDS011;732;51.698;4.886;2023-07-28T09:28:46;23.37;;;16.00;;
1479;SDS011;732;51.698;4.886;2023-07-28T09:31:14;27.63;;;17.90;;
1479;SDS011;732;51.698;4.886;2023-07-28T09:33:43;22.80;;;15.20;;
1479;SDS011;732;51.698;4.886;2023-07-28T09:36:14;20.27;;;15.00;;
1479;SDS011;732;51.698;4.886;2023-07-28T09:38:44;20.27;;;14.03;;
1479;SDS011;732;51.698;4.886;2023-07-28T09:41:13;16.83;;;13.23;;
1479;SDS011;732;51.698;4.886;2023-07-28T09:43:42;18.57;;;12.37;;
1479;SDS011;732;51.698;4.886;2023-07-28T09:46:12;16.47;;;10.73;;
1479;SDS011;732;51.698;4.886;2023-07-28T09:48:45;15.73;;;11.77;;
1479;SDS011;732;51.698;4.886;2023-07-28T09:51:17;16.13;;;11.80;;
1479;SDS011;732;51.698;4.886;2023-07-28T09:53:49;16.20;;;11.40;;
1479;SDS011;732;51.698;4.886;2023-07-28T09:56:25;16.67;;;10.93;;
1479;SDS011;732;51.698;4.886;2023-07-28T09:58:57;19.57;;;12.40;;
1479;SDS011;732;51.698;4.886;2023-07-28T10:01:31;17.33;;;11.43;;
1479;SDS011;732;51.698;4.886;2023-07-28T10:04:01;18.30;;;11.23;;
1479;SDS011;732;51.698;4.886;2023-07-28T10:06:29;15.77;;;11.00;;
1479;SDS011;732;51.698;4.886;2023-07-28T10:09:00;14.17;;;10.27;;
1479;SDS011;732;51.698;4.886;2023-07-28T10:11:29;12.33;;;9.77;;
1479;SDS011;732;51.698;4.886;2023-07-28T10:13:58;12.40;;;9.50;;
1479;SDS011;732;51.698;4.886;2023-07-28T10:16:31;14.40;;;9.93;;
1479;SDS011;732;51.698;4.886;2023-07-28T10:19:06;14.77;;;9.77;;
1479;SDS011;732;51.698;4.886;2023-07-28T10:21:39;11.80;;;9.20;;
1479;SDS011;732;51.698;4.886;2023-07-28T10:24:08;13.27;;;10.43;;
1479;SDS011;732;51.698;4.886;2023-07-28T10:26:37;12.30;;;8.80;;
1479;SDS011;732;51.698;4.886;2023-07-28T10:29:08;12.03;;;8.73;;
1479;SDS011;732;51.698;4.886;2023-07-28T10:31:50;12.63;;;8.87;;
1479;SDS011;732;51.698;4.886;2023-07-28T10:34:19;13.03;;;9.70;;
1479;SDS011;732;51.698;4.886;2023-07-28T10:36:56;12.07;;;9.43;;
1479;SDS011;732;51.698;4.886;2023-07-28T10:39:25;13.07;;;8.57;;
1479;SDS011;732;51.698;4.886;2023-07-28T10:42:01;11.67;;;8.50;;
1479;SDS011;732;51.698;4.886;2023-07-28T10:44:32;11.27;;;7.97;;
1479;SDS011;732;51.698;4.886;2023-07-28T10:47:04;12.17;;;8.20;;
1479;SDS011;732;51.698;4.886;2023-07-28T10:49:36;9.20;;;7.23;;
1479;SDS011;732;51.698;4.886;2023-07-28T10:52:04;10.17;;;8.03;;
1479;SDS011;732;51.698;4.886;2023-07-28T10:54:33;10.90;;;8.03;;
1479;SDS011;732;51.698;4.886;2023-07-28T10:57:02;11.50;;;8.30;;
1479;SDS011;732;51.698;4.886;2023-07-28T10:59:32;9.20;;;6.90;;
1479;SDS011;732;51.698;4.886;2023-07-28T11:02:00;8.13;;;6.93;;
1479;SDS011;732;51.698;4.886;2023-07-28T11:04:30;9.30;;;6.30;;
1479;SDS011;732;51.698;4.886;2023-07-28T11:06:58;9.57;;;6.60;;
1479;SDS011;732;51.698;4.886;2023-07-28T11:09:26;9.73;;;6.10;;
1479;SDS011;732;51.698;4.886;2023-07-28T11:11:55;7.73;;;6.43;;
1479;SDS011;732;51.698;4.886;2023-07-28T11:14:23;9.37;;;6.73;;
1479;SDS011;732;51.698;4.886;2023-07-28T11:16:52;7.60;;;6.27;;
1479;SDS011;732;51.698;4.886;2023-07-28T11:19:20;7.87;;;6.47;;
1479;SDS011;732;51.698;4.886;2023-07-28T11:21:54;8.10;;;6.73;;
1479;SDS011;732;51.698;4.886;2023-07-28T11:24:24;9.77;;;7.03;;
1479;SDS011;732;51.698;4.886;2023-07-28T11:26:53;7.20;;;6.50;;
1479;SDS011;732;51.698;4.886;2023-07-28T11:29:24;8.60;;;7.37;;
1479;SDS011;732;51.698;4.886;2023-07-28T11:31:54;8.70;;;7.23;;
1479;SDS011;732;51.698;4.886;2023-07-28T11:34:22;8.30;;;5.93;;
1479;SDS011;732;51.698;4.886;2023-07-28T11:36:50;7.77;;;6.03;;
1479;SDS011;732;51.698;4.886;2023-07-28T11:39:20;7.83;;;5.70;;
1479;SDS011;732;51.698;4.886;2023-07-28T11:41:50;8.53;;;5.33;;
1479;SDS011;732;51.698;4.886;2023-07-28T11:44:21;7.67;;;5.43;;
1479;SDS011;732;51.698;4.886;2023-07-28T11:46:50;6.93;;;5.53;;
1479;SDS011;732;51.698;4.886;2023-07-28T11:49:22;9.63;;;5.73;;
1479;SDS011;732;51.698;4.886;2023-07-28T11:51:51;7.40;;;5.80;;
1479;SDS011;732;51.698;4.886;2023-07-28T11:54:24;6.10;;;5.43;;
1479;SDS011;732;51.698;4.886;2023-07-28T11:56:54;6.50;;;5.27;;
1479;SDS011;732;51.698;4.886;2023-07-28T11:59:24;5.80;;;5.17;;
1479;SDS011;732;51.698;4.886;2023-07-28T12:01:53;6.70;;;4.90;;
1479;SDS011;732;51.698;4.886;2023-07-28T12:04:26;12.20;;;4.50;;
1479;SDS011;732;51.698;4.886;2023-07-28T12:07:00;7.30;;;6.43;;
1479;SDS011;732;51.698;4.886;2023-07-28T12:09:51;5.93;;;5.27;;
1479;SDS011;732;51.698;4.886;2023-07-28T12:12:23;6.43;;;5.07;;
1479;SDS011;732;51.698;4.886;2023-07-28T12:14:53;8.87;;;5.73;;
1479;SDS011;732;51.698;4.886;2023-07-28T12:17:25;8.30;;;6.70;;
1479;SDS011;732;51.698;4.886;2023-07-28T12:20:01;10.73;;;7.10;;
1479;SDS011;732;51.698;4.886;2023-07-28T12:22:36;8.57;;;6.47;;
1479;SDS011;732;51.698;4.886;2023-07-28T12:25:06;7.00;;;5.10;;
1479;SDS011;732;51.698;4.886;2023-07-28T12:27:35;6.33;;;5.60;;
1479;SDS011;732;51.698;4.886;2023-07-28T12:30:04;6.77;;;5.97;;
1479;SDS011;732;51.698;4.886;2023-07-28T12:32:42;6.70;;;5.97;;
1479;SDS011;732;51.698;4.886;2023-07-28T12:35:13;9.17;;;6.73;;
1479;SDS011;732;51.698;4.886;2023-07-28T12:37:42;6.90;;;6.20;;
1479;SDS011;732;51.698;4.886;2023-07-28T12:40:14;7.97;;;6.50;;
1479;SDS011;732;51.698;4.886;2023-07-28T12:42:45;10.90;;;8.93;;
1479;SDS011;732;51.698;4.886;2023-07-28T12:45:17;10.70;;;9.20;;
1479;SDS011;732;51.698;4.886;2023-07-28T12:47:48;15.13;;;12.13;;
1479;SDS011;732;51.698;4.886;2023-07-28T12:50:24;14.50;;;12.30;;
1479;SDS011;732;51.698;4.886;2023-07-28T12:52:52;17.17;;;12.83;;
1479;SDS011;732;51.698;4.886;2023-07-28T12:55:26;16.10;;;13.30;;
1479;SDS011;732;51.698;4.886;2023-07-28T12:57:55;17.60;;;14.60;;
1479;SDS011;732;51.698;4.886;2023-07-28T13:00:24;17.37;;;14.70;;
1479;SDS011;732;51.698;4.886;2023-07-28T13:02:56;18.23;;;15.20;;
1479;SDS011;732;51.698;4.886;2023-07-28T13:05:24;15.27;;;13.30;;
1479;SDS011;732;51.698;4.886;2023-07-28T13:07:53;14.37;;;11.87;;
1479;SDS011;732;51.698;4.886;2023-07-28T13:10:25;13.50;;;9.90;;
1479;SDS011;732;51.698;4.886;2023-07-28T13:12:56;11.63;;;9.37;;
1479;SDS011;732;51.698;4.886;2023-07-28T13:15:25;20.33;;;9.40;;
1479;SDS011;732;51.698;4.886;2023-07-28T13:17:54;10.80;;;8.87;;
1479;SDS011;732;51.698;4.886;2023-07-28T13:20:22;13.10;;;8.27;;
1479;SDS011;732;51.698;4.886;2023-07-28T13:22:50;8.67;;;7.30;;
1479;SDS011;732;51.698;4.886;2023-07-28T13:25:18;9.40;;;7.13;;
1479;SDS011;732;51.698;4.886;2023-07-28T13:27:48;8.23;;;6.60;;
1479;SDS011;732;51.698;4.886;2023-07-28T13:30:16;7.23;;;6.37;;
1479;SDS011;732;51.698;4.886;2023-07-28T13:32:45;7.13;;;5.60;;
1479;SDS011;732;51.698;4.886;2023-07-28T13:35:14;6.87;;;6.17;;
1479;SDS011;732;51.698;4.886;2023-07-28T13:37:43;8.40;;;6.43;;
1479;SDS011;732;51.698;4.886;2023-07-28T13:40:11;8.43;;;6.57;;
1479;SDS011;732;51.698;4.886;2023-07-28T13:42:40;13.70;;;8.30;;
1479;SDS011;732;51.698;4.886;2023-07-28T13:45:09;9.40;;;8.50;;
1479;SDS011;732;51.698;4.886;2023-07-28T13:47:38;14.63;;;11.80;;
1479;SDS011;732;51.698;4.886;2023-07-28T13:50:06;16.83;;;13.57;;
1479;SDS011;732;51.698;4.886;2023-07-28T13:52:35;14.23;;;12.73;;
1479;SDS011;732;51.698;4.886;2023-07-28T13:55:04;15.83;;;12.60;;
1479;SDS011;732;51.698;4.886;2023-07-28T13:57:35;13.53;;;12.13;;
1479;SDS011;732;51.698;4.886;2023-07-28T14:00:04;13.70;;;12.30;;
1479;SDS011;732;51.698;4.886;2023-07-28T14:05:46;15.70;;;14.20;;
1479;SDS011;732;51.698;4.886;2023-07-28T14:08:15;17.03;;;15.33;;
1479;SDS011;732;51.698;4.886;2023-07-28T14:10:46;16.40;;;14.70;;
1479;SDS011;732;51.698;4.886;2023-07-28T14:13:14;15.23;;;13.63;;
1479;SDS011;732;51.698;4.886;2023-07-28T14:15:43;17.23;;;14.53;;
1479;SDS011;732;51.698;4.886;2023-07-28T14:18:12;20.43;;;15.50;;
1479;SDS011;732;51.698;4.886;2023-07-28T14:20:40;20.30;;;15.60;;
1479;SDS011;732;51.698;4.886;2023-07-28T14:23:23;19.63;;;15.90;;
1479;SDS011;732;51.698;4.886;2023-07-28T14:25:53;17.33;;;15.53;;
1479;SDS011;732;51.698;4.886;2023-07-28T14:28:22;17.10;;;15.40;;
1479;SDS011;732;51.698;4.886;2023-07-28T14:30:51;16.60;;;14.90;;
1479;SDS011;732;51.698;4.886;2023-07-28T14:33:20;16.50;;;13.60;;
1479;SDS011;732;51.698;4.886;2023-07-28T14:35:48;13.73;;;12.33;;
1479;SDS011;732;51.698;4.886;2023-07-28T14:38:17;15.40;;;13.57;;
1479;SDS011;732;51.698;4.886;2023-07-28T14:40:47;11.63;;;10.43;;
1479;SDS011;732;51.698;4.886;2023-07-28T14:43:18;10.67;;;8.63;;
1479;SDS011;732;51.698;4.886;2023-07-28T14:45:49;8.53;;;7.63;;
1479;SDS011;732;51.698;4.886;2023-07-28T14:48:17;10.03;;;7.00;;
1479;SDS011;732;51.698;4.886;2023-07-28T14:50:46;7.10;;;5.90;;
1479;SDS011;732;51.698;4.886;2023-07-28T14:56:07;6.07;;;5.47;;
1479;SDS011;732;51.698;4.886;2023-07-28T14:58:36;9.37;;;5.63;;
1479;SDS011;732;51.698;4.886;2023-07-28T15:01:04;7.30;;;5.63;;
1479;SDS011;732;51.698;4.886;2023-07-28T15:03:34;11.37;;;7.20;;
1479;SDS011;732;51.698;4.886;2023-07-28T15:06:02;8.83;;;7.50;;
1479;SDS011;732;51.698;4.886;2023-07-28T15:08:31;12.83;;;8.97;;
1479;SDS011;732;51.698;4.886;2023-07-28T15:11:00;12.67;;;11.40;;
1479;SDS011;732;51.698;4.886;2023-07-28T15:13:30;15.33;;;12.63;;
1479;SDS011;732;51.698;4.886;2023-07-28T15:15:58;16.00;;;11.13;;
1479;SDS011;732;51.698;4.886;2023-07-28T15:18:27;14.43;;;13.00;;
1479;SDS011;732;51.698;4.886;2023-07-28T15:20:56;12.77;;;11.47;;
1479;SDS011;732;51.698;4.886;2023-07-28T15:23:26;11.00;;;9.40;;
1479;SDS011;732;51.698;4.886;2023-07-28T15:25:55;10.60;;;9.50;;
1479;SDS011;732;51.698;4.886;2023-07-28T15:28:24;9.83;;;8.50;;
1479;SDS011;732;51.698;4.886;2023-07-28T15:30:54;8.70;;;7.80;;